createdAt,value
2022-11-17T00:01:44.435Z,3.76
2022-11-17T00:04:31.283Z,3.73
2022-11-17T00:07:17.828Z,3.78
2022-11-17T00:10:06.922Z,3.71
2022-11-17T00:13:11.064Z,3.70
2022-11-17T00:15:57.919Z,3.63
2022-11-17T00:19:02.498Z,3.61
2022-11-17T00:21:49.191Z,3.56
2022-11-17T00:24:36.286Z,3.51
2022-11-17T00:27:24.293Z,3.49
2022-11-17T00:30:31.669Z,3.61
2022-11-17T00:33:50.056Z,3.59
2022-11-17T00:36:39.525Z,3.51
2022-11-17T00:39:26.085Z,3.51
2022-11-17T00:42:13.076Z,3.45
2022-11-17T00:45:00.831Z,3.46
2022-11-17T00:47:47.566Z,3.45
2022-11-17T00:50:34.451Z,3.43
2022-11-17T00:53:21.279Z,3.36
2022-11-17T00:56:08.870Z,3.40
2022-11-17T00:58:55.879Z,3.42
2022-11-17T01:01:44.654Z,3.42
2022-11-17T01:04:31.359Z,3.48
2022-11-17T01:07:18.067Z,3.42
2022-11-17T01:10:05.153Z,3.41
2022-11-17T01:12:51.860Z,3.43
2022-11-17T01:15:38.770Z,3.44
2022-11-17T01:18:26.919Z,3.39
2022-11-17T01:21:16.589Z,3.37
2022-11-17T01:24:03.617Z,3.39
2022-11-17T01:26:51.911Z,3.37
2022-11-17T01:29:38.526Z,3.38
2022-11-17T01:32:25.221Z,3.31
2022-11-17T01:35:13.428Z,3.27
2022-11-17T01:38:00.306Z,3.29
2022-11-17T01:40:47.096Z,3.25
2022-11-17T01:43:44.954Z,3.27
2022-11-17T01:46:34.200Z,3.32
2022-11-17T01:49:24.066Z,3.25
2022-11-17T01:52:13.362Z,3.19
2022-11-17T01:55:01.694Z,3.23
2022-11-17T01:57:52.328Z,3.20
2022-11-17T02:00:39.084Z,3.22
2022-11-17T02:03:27.399Z,3.21
2022-11-17T02:06:21.794Z,3.22
2022-11-17T02:09:10.405Z,3.18
2022-11-17T02:11:59.938Z,3.23
2022-11-17T02:14:47.284Z,3.20
2022-11-17T02:17:37.611Z,2.80
2022-11-17T02:20:41.520Z,3.19
2022-11-17T02:23:57.334Z,3.23
2022-11-17T02:27:39.927Z,3.20
2022-11-17T02:30:34.035Z,3.22
2022-11-17T02:33:31.622Z,3.22
2022-11-17T02:36:21.959Z,3.12
2022-11-17T02:39:16.208Z,3.16
2022-11-17T02:42:09.401Z,3.17
2022-11-17T02:45:00.579Z,3.14
2022-11-17T02:47:54.712Z,3.11
2022-11-17T02:50:44.036Z,3.12
2022-11-17T02:53:32.020Z,3.10
2022-11-17T02:56:18.870Z,3.17
2022-11-17T02:59:06.771Z,3.16
2022-11-17T03:02:29.690Z,3.23
2022-11-17T03:05:24.253Z,3.20
2022-11-17T03:08:24.296Z,3.16
2022-11-17T03:11:12.662Z,3.14
2022-11-17T03:14:09.438Z,3.15
2022-11-17T03:17:02.425Z,3.16
2022-11-17T03:19:56.719Z,3.18
2022-11-17T03:22:52.270Z,3.11
2022-11-17T03:25:39.575Z,3.05
2022-11-17T03:28:30.623Z,3.13
2022-11-17T03:31:20.164Z,3.17
2022-11-17T03:34:11.235Z,3.17
2022-11-17T03:37:03.019Z,3.10
2022-11-17T03:39:54.416Z,2.98
2022-11-17T03:42:46.275Z,3.08
2022-11-17T03:45:35.742Z,2.98
2022-11-17T03:48:29.460Z,2.94
2022-11-17T03:51:19.612Z,3.07
2022-11-17T03:54:07.581Z,2.79
2022-11-17T03:57:03.194Z,3.08
2022-11-17T03:59:56.968Z,3.09
2022-11-17T04:02:44.887Z,3.04
2022-11-17T04:05:31.742Z,3.05
2022-11-17T04:08:19.832Z,3.21
2022-11-17T04:11:24.421Z,3.08
2022-11-17T04:14:30.006Z,3.07
2022-11-17T04:17:16.821Z,3.16
2022-11-17T04:20:03.531Z,3.15
2022-11-17T04:23:07.261Z,3.19
2022-11-17T04:26:12.502Z,2.90
2022-11-17T04:28:59.208Z,3.23
2022-11-17T04:31:47.284Z,3.19
2022-11-17T04:34:34.219Z,3.22
2022-11-17T04:37:20.891Z,3.25
2022-11-17T04:40:09.324Z,3.26
2022-11-17T04:42:55.239Z,3.29
2022-11-17T04:45:42.090Z,3.31
2022-11-17T04:48:30.255Z,3.29
2022-11-17T04:51:18.240Z,3.29
2022-11-17T04:54:07.100Z,3.28
2022-11-17T04:56:55.740Z,3.11
2022-11-17T04:59:42.281Z,3.29
2022-11-17T05:02:29.021Z,3.31
2022-11-17T05:05:17.268Z,3.32
2022-11-17T05:08:04.069Z,3.32
2022-11-17T05:11:08.167Z,3.37
2022-11-17T05:13:54.963Z,3.38
2022-11-17T05:17:03.236Z,3.39
2022-11-17T05:19:53.959Z,3.42
2022-11-17T05:23:05.354Z,3.34
2022-11-17T05:25:54.871Z,3.47
2022-11-17T05:28:41.407Z,3.42
2022-11-17T05:31:29.508Z,3.49
2022-11-17T05:34:18.390Z,3.48
2022-11-17T05:37:04.929Z,3.47
2022-11-17T05:39:53.136Z,3.45
2022-11-17T05:42:39.809Z,3.59
2022-11-17T05:45:26.593Z,3.52
2022-11-17T05:48:13.461Z,3.58
2022-11-17T05:51:00.212Z,3.59
2022-11-17T05:53:46.814Z,3.58
2022-11-17T05:56:38.391Z,3.59
2022-11-17T05:59:29.070Z,3.60
2022-11-17T06:02:19.499Z,3.62
2022-11-17T06:05:06.735Z,3.67
2022-11-17T06:07:54.965Z,3.62
2022-11-17T06:10:41.534Z,3.65
2022-11-17T06:13:29.767Z,3.67
2022-11-17T06:16:19.464Z,3.61
2022-11-17T06:19:10.332Z,3.58
2022-11-17T06:22:11.531Z,3.61
2022-11-17T06:25:00.607Z,3.52
2022-11-17T06:27:48.886Z,3.58
2022-11-17T06:30:38.112Z,3.68
2022-11-17T06:33:26.078Z,3.68
2022-11-17T06:36:13.069Z,3.61
2022-11-17T06:38:59.729Z,3.58
2022-11-17T06:41:46.256Z,3.62
2022-11-17T06:44:33.032Z,3.72
2022-11-17T06:47:21.218Z,3.64
2022-11-17T06:50:08.734Z,3.71
2022-11-17T06:52:58.235Z,3.76
2022-11-17T06:55:49.073Z,3.74
2022-11-17T06:58:37.041Z,3.72
2022-11-17T07:01:24.240Z,3.82
2022-11-17T07:04:12.212Z,3.78
2022-11-17T07:06:58.989Z,3.74
2022-11-17T07:09:45.754Z,3.79
2022-11-17T07:12:32.460Z,3.77
2022-11-17T07:15:19.301Z,3.80
2022-11-17T07:18:06.239Z,3.82
2022-11-17T07:20:54.535Z,3.84
2022-11-17T07:23:42.197Z,3.80
2022-11-17T07:26:28.969Z,3.79
2022-11-17T07:29:15.848Z,3.80
2022-11-17T07:32:02.654Z,3.82
2022-11-17T07:34:49.790Z,3.92
2022-11-17T07:37:37.918Z,3.87
2022-11-17T07:40:24.694Z,3.86
2022-11-17T07:43:11.426Z,3.91
2022-11-17T07:45:58.238Z,3.85
2022-11-17T07:48:46.230Z,3.65
2022-11-17T07:51:32.966Z,3.89
2022-11-17T07:54:21.058Z,3.93
2022-11-17T07:57:07.678Z,3.89
2022-11-17T07:59:54.373Z,3.90
2022-11-17T08:02:41.326Z,3.86
2022-11-17T08:05:30.661Z,3.88
2022-11-17T08:08:17.569Z,3.92
2022-11-17T08:11:06.029Z,3.94
2022-11-17T08:13:52.842Z,3.99
2022-11-17T08:16:39.756Z,3.90
2022-11-17T08:19:26.574Z,3.91
2022-11-17T08:22:13.388Z,3.87
2022-11-17T08:25:00.273Z,3.95
2022-11-17T08:27:51.966Z,3.92
2022-11-17T08:30:38.812Z,3.92
2022-11-17T08:33:25.287Z,3.92
2022-11-17T08:36:12.162Z,3.94
2022-11-17T08:38:59.016Z,3.97
2022-11-17T08:41:45.687Z,3.91
2022-11-17T08:44:33.943Z,3.97
2022-11-17T08:47:20.441Z,3.93
2022-11-17T08:50:08.316Z,3.57
2022-11-17T08:52:55.099Z,3.97
2022-11-17T08:55:42.515Z,3.66
2022-11-17T08:58:29.516Z,3.93
2022-11-17T09:01:18.174Z,3.99
2022-11-17T09:04:05.927Z,3.92
2022-11-17T09:06:52.655Z,3.92
2022-11-17T09:09:39.512Z,3.91
2022-11-17T09:12:26.299Z,3.99
2022-11-17T09:15:13.409Z,4.02
2022-11-17T09:18:03.226Z,3.97
2022-11-17T09:20:49.899Z,4.02
2022-11-17T09:23:37.278Z,3.97
2022-11-17T09:26:24.447Z,3.98
2022-11-17T09:29:11.559Z,4.07
2022-11-17T09:31:58.388Z,4.06
2022-11-17T09:34:46.505Z,4.06
2022-11-17T09:37:33.275Z,3.85
2022-11-17T09:40:21.139Z,4.10
2022-11-17T09:43:21.487Z,4.07
2022-11-17T09:46:18.934Z,4.06
2022-11-17T09:49:13.733Z,4.10
2022-11-17T09:52:08.740Z,4.10
2022-11-17T09:54:57.707Z,4.04
2022-11-17T09:57:50.973Z,4.13
2022-11-17T10:00:44.120Z,4.09
2022-11-17T10:03:33.430Z,4.14
2022-11-17T10:06:22.700Z,4.16
2022-11-17T10:09:24.185Z,4.17
2022-11-17T10:12:17.725Z,4.10
2022-11-17T10:15:22.245Z,4.04
2022-11-17T10:18:20.634Z,4.12
2022-11-17T10:21:14.893Z,4.10
2022-11-17T10:27:33.279Z,4.17
2022-11-17T10:30:44.677Z,4.21
2022-11-17T10:33:50.189Z,4.18
2022-11-17T10:37:08.329Z,4.20
2022-11-17T10:40:25.860Z,4.32
2022-11-17T10:43:44.143Z,4.24
2022-11-17T10:47:02.014Z,4.35
2022-11-17T10:50:24.418Z,4.38
2022-11-17T10:53:27.178Z,4.42
2022-11-17T10:56:20.494Z,4.40
2022-11-17T10:59:18.135Z,4.37
2022-11-17T11:02:28.644Z,4.40
2022-11-17T11:05:18.360Z,4.44
2022-11-17T11:08:19.759Z,4.48
2022-11-17T11:11:13.900Z,4.48
2022-11-17T11:14:13.488Z,4.45
2022-11-17T11:17:10.846Z,4.42
2022-11-17T11:19:58.935Z,4.50
2022-11-17T11:22:51.321Z,4.43
2022-11-17T11:25:45.748Z,4.46
2022-11-17T11:28:47.976Z,4.39
2022-11-17T11:31:50.570Z,4.48
2022-11-17T11:35:05.063Z,4.45
2022-11-17T11:38:00.397Z,4.46
2022-11-17T11:41:11.305Z,4.44
2022-11-17T11:44:17.389Z,4.43
2022-11-17T11:47:10.631Z,4.39
2022-11-17T11:50:03.914Z,4.43
2022-11-17T11:52:55.543Z,4.38
2022-11-17T11:55:45.158Z,4.32
2022-11-17T11:58:31.972Z,4.34
2022-11-17T12:01:21.572Z,4.39
2022-11-17T12:04:16.484Z,4.34
2022-11-17T12:07:14.765Z,4.38
2022-11-17T12:10:06.170Z,4.22
2022-11-17T12:12:52.890Z,4.30
2022-11-17T12:15:39.606Z,4.27
2022-11-17T12:18:35.499Z,4.33
2022-11-17T12:21:25.152Z,4.27
2022-11-17T12:24:18.498Z,4.30
2022-11-17T12:27:32.813Z,4.31
2022-11-17T12:30:56.379Z,4.26
2022-11-17T12:34:20.006Z,4.21
2022-11-17T12:37:23.114Z,4.21
2022-11-17T12:40:45.507Z,4.28
2022-11-17T12:43:32.501Z,4.28
2022-11-17T12:46:27.858Z,4.23
2022-11-17T12:49:29.126Z,4.33
2022-11-17T12:52:27.855Z,4.31
2022-11-17T12:55:26.501Z,4.26
2022-11-17T12:58:30.954Z,4.26
2022-11-17T13:01:41.740Z,4.30
2022-11-17T13:04:36.772Z,4.36
2022-11-17T13:07:27.946Z,4.24
2022-11-17T13:10:26.315Z,4.25
2022-11-17T13:13:16.961Z,3.84
2022-11-17T13:16:05.828Z,4.25
2022-11-17T13:18:52.481Z,4.17
2022-11-17T13:21:39.246Z,4.09
2022-11-17T13:24:31.726Z,4.13
2022-11-17T13:27:23.895Z,4.15
2022-11-17T13:30:17.040Z,4.17
2022-11-17T13:33:11.862Z,4.17
2022-11-17T13:36:08.267Z,4.09
2022-11-17T13:38:57.411Z,4.08
2022-11-17T13:41:44.319Z,4.00
2022-11-17T13:44:33.466Z,3.98
2022-11-17T13:47:21.176Z,4.00
2022-11-17T13:50:34.164Z,4.00
2022-11-17T13:53:26.728Z,3.94
2022-11-17T13:56:27.698Z,3.90
2022-11-17T13:59:27.736Z,3.94
2022-11-17T14:02:25.911Z,3.84
2022-11-17T14:05:26.081Z,3.87
2022-11-17T14:08:22.571Z,3.81
2022-11-17T14:11:28.739Z,3.87
2022-11-17T14:14:21.642Z,3.83
2022-11-17T14:17:13.848Z,3.84
2022-11-17T14:20:30.996Z,3.86
2022-11-17T14:23:19.590Z,3.83
2022-11-17T14:26:07.253Z,3.78
2022-11-17T14:28:55.285Z,3.75
2022-11-17T14:31:41.833Z,3.74
2022-11-17T14:34:28.656Z,3.71
2022-11-17T14:37:15.556Z,3.73
2022-11-17T14:40:05.901Z,3.70
2022-11-17T14:42:52.480Z,3.63
2022-11-17T14:45:39.387Z,3.62
2022-11-17T14:48:26.657Z,3.66
2022-11-17T14:51:15.695Z,3.68
2022-11-17T14:54:03.096Z,3.73
2022-11-17T14:56:51.232Z,3.69
2022-11-17T14:59:37.991Z,3.69
2022-11-17T15:02:24.531Z,3.67
2022-11-17T15:05:11.998Z,3.65
2022-11-17T15:07:58.503Z,3.59
2022-11-17T15:10:46.611Z,3.61
2022-11-17T15:13:34.529Z,3.63
2022-11-17T15:16:21.349Z,3.56
2022-11-17T15:19:08.155Z,3.55
2022-11-17T15:21:54.973Z,3.57
2022-11-17T15:24:42.404Z,3.59
2022-11-17T15:27:28.855Z,3.58
2022-11-17T15:30:18.138Z,3.62
2022-11-17T15:33:04.972Z,3.57
2022-11-17T15:36:01.485Z,3.58
2022-11-17T15:38:48.706Z,3.53
2022-11-17T15:41:35.268Z,3.45
2022-11-17T15:44:22.062Z,3.50
2022-11-17T15:47:10.279Z,3.51
2022-11-17T15:49:58.680Z,3.53
2022-11-17T15:55:51.562Z,3.57
2022-11-17T15:58:39.089Z,3.56
2022-11-17T16:01:30.414Z,3.55
2022-11-17T16:04:18.405Z,3.56
2022-11-17T16:07:05.381Z,3.57
2022-11-17T16:09:52.279Z,3.58
2022-11-17T16:12:39.225Z,3.61
2022-11-17T16:15:26.017Z,3.63
2022-11-17T16:18:12.471Z,3.61
2022-11-17T16:21:05.363Z,3.62
2022-11-17T16:23:54.749Z,3.60
2022-11-17T16:26:41.661Z,3.61
2022-11-17T16:29:28.382Z,3.61
2022-11-17T16:32:15.120Z,3.60
2022-11-17T16:35:02.194Z,3.66
2022-11-17T16:37:52.118Z,3.62
2022-11-17T16:40:39.878Z,3.59
2022-11-17T16:43:26.279Z,3.55
2022-11-17T16:46:17.804Z,3.61
2022-11-17T16:49:06.565Z,3.64
2022-11-17T16:51:54.846Z,3.61
2022-11-17T16:54:42.912Z,3.61
2022-11-17T16:57:30.850Z,3.60
2022-11-17T17:00:18.503Z,3.50
2022-11-17T17:03:05.441Z,3.52
2022-11-17T17:05:52.156Z,3.56
2022-11-17T17:08:38.823Z,3.55
2022-11-17T17:11:27.438Z,3.63
2022-11-17T17:14:15.647Z,3.57
2022-11-17T17:17:02.379Z,3.49
2022-11-17T17:19:49.318Z,3.53
2022-11-17T17:22:35.933Z,3.54
2022-11-17T17:25:22.767Z,3.61
2022-11-17T17:28:10.827Z,3.54
2022-11-17T17:30:57.569Z,3.57
2022-11-17T17:33:44.875Z,3.44
2022-11-17T17:36:32.235Z,3.53
2022-11-17T17:39:19.242Z,3.49
2022-11-17T17:42:06.210Z,3.44
2022-11-17T17:44:54.431Z,3.42
2022-11-17T17:47:41.362Z,3.38
2022-11-17T17:50:28.198Z,3.42
2022-11-17T17:53:14.896Z,3.43
2022-11-17T17:56:02.164Z,3.37
2022-11-17T17:58:51.998Z,3.35
2022-11-17T18:01:42.367Z,3.33
2022-11-17T18:04:29.844Z,3.37
2022-11-17T18:07:17.489Z,3.34
2022-11-17T18:10:05.073Z,3.33
2022-11-17T18:12:52.426Z,3.23
2022-11-17T18:15:41.680Z,3.21
2022-11-17T18:18:29.975Z,3.23
2022-11-17T18:21:19.222Z,3.17
2022-11-17T18:24:06.632Z,3.19
2022-11-17T18:26:53.806Z,3.23
2022-11-17T18:29:40.851Z,3.16
2022-11-17T18:32:28.313Z,3.11
2022-11-17T18:35:17.020Z,3.09
2022-11-17T18:38:04.484Z,3.05
2022-11-17T18:40:53.477Z,3.06
2022-11-17T18:43:44.453Z,3.01
2022-11-17T18:46:32.491Z,3.01
2022-11-17T18:49:19.555Z,2.99
2022-11-17T18:52:07.886Z,2.89
2022-11-17T18:54:54.703Z,2.97
2022-11-17T18:57:44.896Z,2.85
2022-11-17T19:00:31.578Z,2.82
2022-11-17T19:03:19.474Z,2.70
2022-11-17T19:06:07.460Z,2.66
2022-11-17T19:08:55.706Z,2.69
2022-11-17T19:11:42.190Z,2.73
2022-11-17T19:14:28.973Z,2.71
2022-11-17T19:17:15.687Z,2.67
2022-11-17T19:20:02.531Z,2.68
2022-11-17T19:22:49.097Z,2.67
2022-11-17T19:25:39.302Z,2.62
2022-11-17T19:28:25.987Z,2.65
2022-11-17T19:31:15.461Z,2.66
2022-11-17T19:34:02.076Z,2.60
2022-11-17T19:36:51.407Z,2.59
2022-11-17T19:39:38.080Z,2.55
2022-11-17T19:42:26.119Z,2.50
2022-11-17T19:45:12.989Z,2.50
2022-11-17T19:48:01.038Z,2.46
2022-11-17T19:50:51.620Z,2.43
2022-11-17T19:53:41.261Z,2.42
2022-11-17T19:56:28.841Z,2.41
2022-11-17T19:59:17.152Z,2.33
2022-11-17T20:02:05.498Z,2.31
2022-11-17T20:04:52.193Z,2.36
2022-11-17T20:07:39.389Z,2.29
2022-11-17T20:10:25.857Z,2.28
2022-11-17T20:13:12.444Z,2.30
2022-11-17T20:16:02.848Z,2.08
2022-11-17T20:18:52.041Z,2.27
2022-11-17T20:21:38.623Z,2.28
2022-11-17T20:24:25.496Z,2.23
2022-11-17T20:27:12.002Z,2.34
2022-11-17T20:29:58.870Z,2.27
2022-11-17T20:32:46.952Z,2.24
2022-11-17T20:35:38.008Z,1.85
2022-11-17T20:38:26.277Z,2.27
2022-11-17T20:41:13.099Z,2.21
2022-11-17T20:44:01.993Z,2.23
2022-11-17T20:46:48.496Z,2.22
2022-11-17T20:49:37.274Z,2.12
2022-11-17T20:52:24.046Z,2.14
2022-11-17T20:55:10.902Z,2.14
2022-11-17T20:57:57.614Z,2.11
2022-11-17T21:00:45.385Z,1.98
2022-11-17T21:03:32.200Z,1.89
2022-11-17T21:06:23.150Z,2.06
2022-11-17T21:09:10.011Z,1.96
2022-11-17T21:12:00.095Z,1.97
2022-11-17T21:14:47.013Z,2.03
2022-11-17T21:17:52.245Z,1.96
2022-11-17T21:20:38.894Z,1.86
2022-11-17T21:23:27.089Z,1.84
2022-11-17T21:26:17.138Z,1.83
2022-11-17T21:29:06.643Z,1.76
2022-11-17T21:31:53.770Z,1.78
2022-11-17T21:34:40.515Z,1.73
2022-11-17T21:37:28.081Z,1.76
2022-11-17T21:40:16.141Z,1.79
2022-11-17T21:43:02.857Z,1.77
2022-11-17T21:45:49.587Z,1.73
2022-11-17T21:48:37.674Z,1.65
2022-11-17T21:51:25.988Z,1.64
2022-11-17T21:54:12.469Z,1.63
2022-11-17T21:57:00.588Z,1.61
2022-11-17T21:59:47.755Z,1.53
2022-11-17T22:02:34.099Z,1.62
2022-11-17T22:05:22.248Z,1.63
2022-11-17T22:08:09.031Z,1.64
2022-11-17T22:10:55.863Z,1.62
2022-11-17T22:13:44.118Z,1.65
2022-11-17T22:16:30.609Z,1.66
2022-11-17T22:19:19.286Z,1.59
2022-11-17T22:22:07.710Z,1.69
2022-11-17T22:24:54.446Z,1.63
2022-11-17T22:27:41.352Z,1.61
2022-11-17T22:30:29.532Z,1.57
2022-11-17T22:33:16.473Z,1.56
2022-11-17T22:36:03.922Z,1.30
2022-11-17T22:38:52.126Z,1.49
2022-11-17T22:41:38.876Z,1.54
2022-11-17T22:44:25.834Z,1.51
2022-11-17T22:47:13.576Z,1.50
2022-11-17T22:50:00.526Z,1.50
2022-11-17T22:52:47.304Z,1.45
2022-11-17T22:55:34.584Z,1.41
2022-11-17T22:58:21.337Z,1.25
2022-11-17T23:01:08.855Z,1.39
2022-11-17T23:03:57.092Z,1.42
2022-11-17T23:06:44.112Z,1.41
2022-11-17T23:09:30.923Z,1.42
2022-11-17T23:12:17.721Z,1.46
2022-11-17T23:15:04.936Z,1.42
2022-11-17T23:17:51.874Z,1.36
2022-11-17T23:20:40.411Z,1.40
2022-11-17T23:23:27.132Z,0.55
2022-11-17T23:26:14.349Z,1.40
2022-11-17T23:29:01.118Z,1.39
2022-11-17T23:31:47.977Z,1.41
2022-11-17T23:34:34.860Z,1.34
2022-11-17T23:37:23.842Z,1.29
2022-11-17T23:40:11.708Z,1.41
2022-11-17T23:42:58.131Z,1.39
2022-11-17T23:45:45.588Z,1.32
2022-11-17T23:48:32.162Z,1.34
2022-11-17T23:51:21.232Z,1.26
2022-11-17T23:54:12.404Z,1.25
2022-11-17T23:56:59.156Z,1.15
2022-11-17T23:59:45.691Z,1.15
